sensor_id;sensor_type;location;lat;lon;timestamp;P1;durP1;ratioP1;P2;durP2;ratioP2
8482;SDS011;4278;42.668;23.312;2023-08-06T00:00:30;4.70;;;3.25;;
8482;SDS011;4278;42.668;23.312;2023-08-06T00:02:56;6.30;;;3.65;;
8482;SDS011;4278;42.668;23.312;2023-08-06T00:05:23;5.43;;;3.88;;
8482;SDS011;4278;42.668;23.312;2023-08-06T00:07:50;6.82;;;4.38;;
8482;SDS011;4278;42.668;23.312;2023-08-06T00:10:17;5.80;;;3.78;;
8482;SDS011;4278;42.668;23.312;2023-08-06T00:12:45;9.27;;;4.38;;
8482;SDS011;4278;42.668;23.312;2023-08-06T00:15:12;4.95;;;3.80;;
8482;SDS011;4278;42.668;23.312;2023-08-06T00:17:38;5.18;;;3.72;;
8482;SDS011;4278;42.668;23.312;2023-08-06T00:20:06;4.93;;;3.78;;
8482;SDS011;4278;42.668;23.312;2023-08-06T00:22:33;7.28;;;3.80;;
8482;SDS011;4278;42.668;23.312;2023-08-06T00:25:01;8.93;;;4.53;;
8482;SDS011;4278;42.668;23.312;2023-08-06T00:27:27;11.38;;;5.65;;
8482;SDS011;4278;42.668;23.312;2023-08-06T00:29:55;12.02;;;5.53;;
8482;SDS011;4278;42.668;23.312;2023-08-06T00:32:22;6.00;;;5.32;;
8482;SDS011;4278;42.668;23.312;2023-08-06T00:34:49;7.85;;;5.45;;
8482;SDS011;4278;42.668;23.312;2023-08-06T00:37:16;8.82;;;5.18;;
8482;SDS011;4278;42.668;23.312;2023-08-06T00:39:43;7.47;;;6.03;;
8482;SDS011;4278;42.668;23.312;2023-08-06T00:42:10;10.23;;;7.00;;
8482;SDS011;4278;42.668;23.312;2023-08-06T00:44:37;11.82;;;7.50;;
8482;SDS011;4278;42.668;23.312;2023-08-06T00:47:06;9.80;;;6.32;;
8482;SDS011;4278;42.668;23.312;2023-08-06T00:49:34;9.80;;;6.93;;
8482;SDS011;4278;42.668;23.312;2023-08-06T00:52:02;11.40;;;7.85;;
8482;SDS011;4278;42.668;23.312;2023-08-06T00:54:30;11.43;;;6.60;;
8482;SDS011;4278;42.668;23.312;2023-08-06T00:56:57;8.75;;;5.93;;
8482;SDS011;4278;42.668;23.312;2023-08-06T00:59:25;7.43;;;5.32;;
8482;SDS011;4278;42.668;23.312;2023-08-06T01:01:53;6.40;;;4.78;;
8482;SDS011;4278;42.668;23.312;2023-08-06T01:04:21;4.28;;;3.38;;
8482;SDS011;4278;42.668;23.312;2023-08-06T01:06:52;4.68;;;3.60;;
8482;SDS011;4278;42.668;23.312;2023-08-06T01:09:31;8.85;;;4.65;;
8482;SDS011;4278;42.668;23.312;2023-08-06T01:12:16;6.72;;;3.97;;
8482;SDS011;4278;42.668;23.312;2023-08-06T01:14:52;7.13;;;4.93;;
8482;SDS011;4278;42.668;23.312;2023-08-06T01:17:24;6.13;;;5.20;;
8482;SDS011;4278;42.668;23.312;2023-08-06T01:19:53;6.22;;;4.88;;
8482;SDS011;4278;42.668;23.312;2023-08-06T01:22:21;9.35;;;4.80;;
8482;SDS011;4278;42.668;23.312;2023-08-06T01:24:48;6.32;;;4.68;;
8482;SDS011;4278;42.668;23.312;2023-08-06T01:27:17;7.03;;;3.90;;
8482;SDS011;4278;42.668;23.312;2023-08-06T01:29:54;7.10;;;4.28;;
8482;SDS011;4278;42.668;23.312;2023-08-06T01:32:27;8.05;;;4.25;;
8482;SDS011;4278;42.668;23.312;2023-08-06T01:34:58;5.50;;;4.40;;
8482;SDS011;4278;42.668;23.312;2023-08-06T01:37:28;6.57;;;4.10;;
8482;SDS011;4278;42.668;23.312;2023-08-06T01:39:55;6.60;;;4.40;;
8482;SDS011;4278;42.668;23.312;2023-08-06T01:42:22;5.68;;;3.95;;
8482;SDS011;4278;42.668;23.312;2023-08-06T01:44:49;6.88;;;4.50;;
8482;SDS011;4278;42.668;23.312;2023-08-06T01:47:15;5.00;;;4.50;;
8482;SDS011;4278;42.668;23.312;2023-08-06T01:49:42;7.78;;;4.63;;
8482;SDS011;4278;42.668;23.312;2023-08-06T01:52:09;5.63;;;4.35;;
8482;SDS011;4278;42.668;23.312;2023-08-06T01:54:37;7.38;;;4.97;;
8482;SDS011;4278;42.668;23.312;2023-08-06T01:57:04;8.57;;;4.65;;
8482;SDS011;4278;42.668;23.312;2023-08-06T01:59:31;6.38;;;4.53;;
8482;SDS011;4278;42.668;23.312;2023-08-06T02:01:58;6.35;;;4.38;;
8482;SDS011;4278;42.668;23.312;2023-08-06T02:04:24;6.03;;;4.35;;
8482;SDS011;4278;42.668;23.312;2023-08-06T02:06:51;5.03;;;4.00;;
8482;SDS011;4278;42.668;23.312;2023-08-06T02:09:18;5.63;;;4.40;;
8482;SDS011;4278;42.668;23.312;2023-08-06T02:11:46;4.68;;;3.63;;
8482;SDS011;4278;42.668;23.312;2023-08-06T02:14:13;6.10;;;3.95;;
8482;SDS011;4278;42.668;23.312;2023-08-06T02:16:39;6.43;;;4.20;;
8482;SDS011;4278;42.668;23.312;2023-08-06T02:19:06;6.35;;;3.65;;
8482;SDS011;4278;42.668;23.312;2023-08-06T02:21:33;4.40;;;3.97;;
8482;SDS011;4278;42.668;23.312;2023-08-06T02:23:59;5.63;;;3.90;;
8482;SDS011;4278;42.668;23.312;2023-08-06T02:26:26;3.58;;;3.28;;
8482;SDS011;4278;42.668;23.312;2023-08-06T02:28:54;12.57;;;6.15;;
8482;SDS011;4278;42.668;23.312;2023-08-06T02:31:21;6.13;;;4.70;;
8482;SDS011;4278;42.668;23.312;2023-08-06T02:33:48;7.82;;;4.47;;
8482;SDS011;4278;42.668;23.312;2023-08-06T02:36:14;6.63;;;3.50;;
8482;SDS011;4278;42.668;23.312;2023-08-06T02:38:41;7.28;;;3.70;;
8482;SDS011;4278;42.668;23.312;2023-08-06T02:41:08;6.70;;;4.10;;
8482;SDS011;4278;42.668;23.312;2023-08-06T02:43:35;5.97;;;4.22;;
8482;SDS011;4278;42.668;23.312;2023-08-06T02:46:03;5.32;;;4.10;;
8482;SDS011;4278;42.668;23.312;2023-08-06T02:48:29;5.53;;;4.30;;
8482;SDS011;4278;42.668;23.312;2023-08-06T02:50:57;6.95;;;4.20;;
8482;SDS011;4278;42.668;23.312;2023-08-06T02:53:24;5.88;;;3.75;;
8482;SDS011;4278;42.668;23.312;2023-08-06T02:55:51;5.22;;;4.00;;
8482;SDS011;4278;42.668;23.312;2023-08-06T02:58:18;6.97;;;3.60;;
8482;SDS011;4278;42.668;23.312;2023-08-06T03:00:47;4.43;;;3.83;;
8482;SDS011;4278;42.668;23.312;2023-08-06T03:03:26;8.07;;;3.97;;
8482;SDS011;4278;42.668;23.312;2023-08-06T03:05:53;5.80;;;3.70;;
8482;SDS011;4278;42.668;23.312;2023-08-06T03:08:20;6.75;;;3.95;;
8482;SDS011;4278;42.668;23.312;2023-08-06T03:10:47;5.80;;;3.85;;
8482;SDS011;4278;42.668;23.312;2023-08-06T03:13:15;5.22;;;3.95;;
8482;SDS011;4278;42.668;23.312;2023-08-06T03:15:41;6.82;;;4.20;;
8482;SDS011;4278;42.668;23.312;2023-08-06T03:18:08;6.53;;;4.15;;
8482;SDS011;4278;42.668;23.312;2023-08-06T03:20:36;9.60;;;3.95;;
8482;SDS011;4278;42.668;23.312;2023-08-06T03:23:03;6.93;;;4.68;;
8482;SDS011;4278;42.668;23.312;2023-08-06T03:25:30;5.30;;;4.13;;
8482;SDS011;4278;42.668;23.312;2023-08-06T03:27:56;6.30;;;3.83;;
8482;SDS011;4278;42.668;23.312;2023-08-06T03:30:23;5.07;;;4.38;;
8482;SDS011;4278;42.668;23.312;2023-08-06T03:32:50;9.23;;;4.53;;
8482;SDS011;4278;42.668;23.312;2023-08-06T03:35:17;7.43;;;4.22;;
8482;SDS011;4278;42.668;23.312;2023-08-06T03:37:45;6.25;;;4.18;;
8482;SDS011;4278;42.668;23.312;2023-08-06T03:40:11;5.82;;;4.47;;
8482;SDS011;4278;42.668;23.312;2023-08-06T03:42:38;10.05;;;4.30;;
8482;SDS011;4278;42.668;23.312;2023-08-06T03:45:05;5.82;;;4.35;;
8482;SDS011;4278;42.668;23.312;2023-08-06T03:47:34;4.38;;;3.70;;
8482;SDS011;4278;42.668;23.312;2023-08-06T03:50:00;6.20;;;4.10;;
8482;SDS011;4278;42.668;23.312;2023-08-06T03:52:27;4.65;;;3.80;;
8482;SDS011;4278;42.668;23.312;2023-08-06T03:54:55;6.80;;;4.38;;
8482;SDS011;4278;42.668;23.312;2023-08-06T03:57:22;5.30;;;4.10;;
8482;SDS011;4278;42.668;23.312;2023-08-06T03:59:48;5.47;;;3.78;;
8482;SDS011;4278;42.668;23.312;2023-08-06T04:02:15;10.13;;;3.88;;
8482;SDS011;4278;42.668;23.312;2023-08-06T04:04:42;5.85;;;3.88;;
8482;SDS011;4278;42.668;23.312;2023-08-06T04:07:09;5.90;;;3.83;;
8482;SDS011;4278;42.668;23.312;2023-08-06T04:09:41;8.48;;;3.85;;
8482;SDS011;4278;42.668;23.312;2023-08-06T04:12:19;5.18;;;4.35;;
8482;SDS011;4278;42.668;23.312;2023-08-06T04:14:46;4.40;;;3.83;;
8482;SDS011;4278;42.668;23.312;2023-08-06T04:17:12;5.57;;;4.38;;
8482;SDS011;4278;42.668;23.312;2023-08-06T04:19:39;7.85;;;4.40;;
8482;SDS011;4278;42.668;23.312;2023-08-06T04:22:06;5.43;;;4.07;;
8482;SDS011;4278;42.668;23.312;2023-08-06T04:24:33;5.07;;;3.67;;
8482;SDS011;4278;42.668;23.312;2023-08-06T04:26:59;7.15;;;3.97;;
8482;SDS011;4278;42.668;23.312;2023-08-06T04:29:27;6.50;;;3.67;;
8482;SDS011;4278;42.668;23.312;2023-08-06T04:31:54;6.53;;;3.70;;
8482;SDS011;4278;42.668;23.312;2023-08-06T04:34:21;4.47;;;3.78;;
8482;SDS011;4278;42.668;23.312;2023-08-06T04:36:48;3.67;;;3.33;;
8482;SDS011;4278;42.668;23.312;2023-08-06T04:39:15;6.53;;;5.05;;
8482;SDS011;4278;42.668;23.312;2023-08-06T04:41:41;6.28;;;4.82;;
8482;SDS011;4278;42.668;23.312;2023-08-06T04:44:08;5.93;;;4.88;;
8482;SDS011;4278;42.668;23.312;2023-08-06T04:46:36;6.88;;;4.60;;
8482;SDS011;4278;42.668;23.312;2023-08-06T04:49:03;7.13;;;4.68;;
8482;SDS011;4278;42.668;23.312;2023-08-06T04:51:30;6.85;;;5.18;;
8482;SDS011;4278;42.668;23.312;2023-08-06T04:53:56;8.05;;;5.28;;
8482;SDS011;4278;42.668;23.312;2023-08-06T04:56:23;7.95;;;5.72;;
8482;SDS011;4278;42.668;23.312;2023-08-06T04:58:50;8.48;;;6.13;;
8482;SDS011;4278;42.668;23.312;2023-08-06T05:01:17;8.52;;;6.40;;
8482;SDS011;4278;42.668;23.312;2023-08-06T05:03:46;9.30;;;6.00;;
8482;SDS011;4278;42.668;23.312;2023-08-06T05:06:13;7.50;;;5.20;;
8482;SDS011;4278;42.668;23.312;2023-08-06T05:08:39;5.85;;;4.57;;
8482;SDS011;4278;42.668;23.312;2023-08-06T05:11:06;6.57;;;4.78;;
8482;SDS011;4278;42.668;23.312;2023-08-06T05:13:33;6.13;;;4.53;;
8482;SDS011;4278;42.668;23.312;2023-08-06T05:16:00;5.00;;;4.10;;
8482;SDS011;4278;42.668;23.312;2023-08-06T05:18:26;5.75;;;4.05;;
8482;SDS011;4278;42.668;23.312;2023-08-06T05:20:54;7.07;;;5.03;;
8482;SDS011;4278;42.668;23.312;2023-08-06T05:23:21;9.57;;;6.13;;
8482;SDS011;4278;42.668;23.312;2023-08-06T05:25:48;7.63;;;6.68;;
8482;SDS011;4278;42.668;23.312;2023-08-06T05:28:14;11.15;;;7.00;;
8482;SDS011;4278;42.668;23.312;2023-08-06T05:30:41;11.60;;;7.80;;
8482;SDS011;4278;42.668;23.312;2023-08-06T05:33:08;9.65;;;7.38;;
8482;SDS011;4278;42.668;23.312;2023-08-06T05:35:35;11.65;;;8.30;;
8482;SDS011;4278;42.668;23.312;2023-08-06T05:38:03;11.95;;;8.65;;
8482;SDS011;4278;42.668;23.312;2023-08-06T05:40:30;10.88;;;8.75;;
8482;SDS011;4278;42.668;23.312;2023-08-06T05:42:59;10.55;;;8.98;;
8482;SDS011;4278;42.668;23.312;2023-08-06T05:45:26;10.88;;;8.55;;
8482;SDS011;4278;42.668;23.312;2023-08-06T05:47:53;13.32;;;8.90;;
8482;SDS011;4278;42.668;23.312;2023-08-06T05:50:22;13.35;;;9.02;;
8482;SDS011;4278;42.668;23.312;2023-08-06T05:52:49;12.02;;;8.63;;
8482;SDS011;4278;42.668;23.312;2023-08-06T05:55:18;10.68;;;7.80;;
8482;SDS011;4278;42.668;23.312;2023-08-06T05:57:45;6.82;;;4.85;;
8482;SDS011;4278;42.668;23.312;2023-08-06T06:00:12;7.75;;;5.10;;
8482;SDS011;4278;42.668;23.312;2023-08-06T06:02:38;5.57;;;4.72;;
8482;SDS011;4278;42.668;23.312;2023-08-06T06:05:05;4.97;;;4.15;;
8482;SDS011;4278;42.668;23.312;2023-08-06T06:07:32;3.95;;;3.35;;
8482;SDS011;4278;42.668;23.312;2023-08-06T06:09:59;6.45;;;3.55;;
8482;SDS011;4278;42.668;23.312;2023-08-06T06:12:27;4.60;;;3.80;;
8482;SDS011;4278;42.668;23.312;2023-08-06T06:14:55;4.93;;;3.47;;
8482;SDS011;4278;42.668;23.312;2023-08-06T06:17:22;3.50;;;3.20;;
8482;SDS011;4278;42.668;23.312;2023-08-06T06:19:49;5.75;;;3.63;;
8482;SDS011;4278;42.668;23.312;2023-08-06T06:22:15;5.40;;;4.10;;
8482;SDS011;4278;42.668;23.312;2023-08-06T06:24:42;4.50;;;3.60;;
8482;SDS011;4278;42.668;23.312;2023-08-06T06:27:09;3.50;;;2.90;;
8482;SDS011;4278;42.668;23.312;2023-08-06T06:29:37;4.68;;;2.88;;
8482;SDS011;4278;42.668;23.312;2023-08-06T06:32:04;4.25;;;3.50;;
8482;SDS011;4278;42.668;23.312;2023-08-06T06:34:31;5.28;;;3.58;;
8482;SDS011;4278;42.668;23.312;2023-08-06T06:36:58;4.93;;;3.78;;
8482;SDS011;4278;42.668;23.312;2023-08-06T06:39:25;3.63;;;3.03;;
8482;SDS011;4278;42.668;23.312;2023-08-06T06:41:51;4.38;;;3.28;;
8482;SDS011;4278;42.668;23.312;2023-08-06T06:44:18;3.92;;;3.05;;
8482;SDS011;4278;42.668;23.312;2023-08-06T06:46:47;3.55;;;2.70;;
8482;SDS011;4278;42.668;23.312;2023-08-06T06:49:14;3.78;;;2.95;;
8482;SDS011;4278;42.668;23.312;2023-08-06T06:51:41;3.50;;;3.20;;
8482;SDS011;4278;42.668;23.312;2023-08-06T06:54:08;3.72;;;3.25;;
8482;SDS011;4278;42.668;23.312;2023-08-06T06:56:35;4.90;;;3.60;;
8482;SDS011;4278;42.668;23.312;2023-08-06T06:59:01;7.30;;;3.72;;
8482;SDS011;4278;42.668;23.312;2023-08-06T07:01:28;4.18;;;3.50;;
8482;SDS011;4278;42.668;23.312;2023-08-06T07:03:56;3.35;;;3.05;;
8482;SDS011;4278;42.668;23.312;2023-08-06T07:06:23;4.47;;;3.25;;
8482;SDS011;4278;42.668;23.312;2023-08-06T07:08:50;4.03;;;3.28;;
8482;SDS011;4278;42.668;23.312;2023-08-06T07:11:17;3.42;;;3.13;;
8482;SDS011;4278;42.668;23.312;2023-08-06T07:13:43;5.00;;;3.00;;
8482;SDS011;4278;42.668;23.312;2023-08-06T07:16:10;3.22;;;2.92;;
8482;SDS011;4278;42.668;23.312;2023-08-06T07:18:37;3.22;;;2.92;;
8482;SDS011;4278;42.668;23.312;2023-08-06T07:21:05;4.00;;;2.90;;
8482;SDS011;4278;42.668;23.312;2023-08-06T07:26:17;3.38;;;3.08;;
8482;SDS011;4278;42.668;23.312;2023-08-06T07:28:44;6.40;;;3.10;;
8482;SDS011;4278;42.668;23.312;2023-08-06T07:31:11;4.28;;;2.70;;
8482;SDS011;4278;42.668;23.312;2023-08-06T07:33:37;3.17;;;2.78;;
8482;SDS011;4278;42.668;23.312;2023-08-06T07:36:09;2.90;;;2.60;;
8482;SDS011;4278;42.668;23.312;2023-08-06T07:38:37;4.07;;;2.60;;
8482;SDS011;4278;42.668;23.312;2023-08-06T07:41:04;6.15;;;2.95;;
8482;SDS011;4278;42.668;23.312;2023-08-06T07:43:31;3.15;;;2.85;;
8482;SDS011;4278;42.668;23.312;2023-08-06T07:45:58;3.80;;;2.60;;
8482;SDS011;4278;42.668;23.312;2023-08-06T07:48:25;3.70;;;2.63;;
8482;SDS011;4278;42.668;23.312;2023-08-06T07:50:52;3.47;;;2.50;;
8482;SDS011;4278;42.668;23.312;2023-08-06T07:53:21;3.90;;;2.65;;
8482;SDS011;4278;42.668;23.312;2023-08-06T07:55:49;4.30;;;2.70;;
8482;SDS011;4278;42.668;23.312;2023-08-06T07:58:17;2.85;;;2.65;;
8482;SDS011;4278;42.668;23.312;2023-08-06T08:00:44;5.95;;;2.80;;
8482;SDS011;4278;42.668;23.312;2023-08-06T08:03:11;2.85;;;2.65;;
8482;SDS011;4278;42.668;23.312;2023-08-06T08:05:38;3.65;;;2.83;;
8482;SDS011;4278;42.668;23.312;2023-08-06T08:08:05;5.32;;;2.40;;
8482;SDS011;4278;42.668;23.312;2023-08-06T08:10:33;3.33;;;2.75;;
8482;SDS011;4278;42.668;23.312;2023-08-06T08:13:01;5.45;;;3.30;;
8482;SDS011;4278;42.668;23.312;2023-08-06T08:15:29;3.20;;;2.90;;
8482;SDS011;4278;42.668;23.312;2023-08-06T08:17:57;4.70;;;3.20;;
8482;SDS011;4278;42.668;23.312;2023-08-06T08:20:24;3.20;;;2.90;;
8482;SDS011;4278;42.668;23.312;2023-08-06T08:22:52;3.15;;;2.55;;
8482;SDS011;4278;42.668;23.312;2023-08-06T08:25:19;2.90;;;2.50;;
8482;SDS011;4278;42.668;23.312;2023-08-06T08:27:47;2.95;;;2.42;;
8482;SDS011;4278;42.668;23.312;2023-08-06T08:30:14;3.05;;;2.72;;
8482;SDS011;4278;42.668;23.312;2023-08-06T08:32:41;2.92;;;2.60;;
8482;SDS011;4278;42.668;23.312;2023-08-06T08:35:08;4.05;;;2.60;;
8482;SDS011;4278;42.668;23.312;2023-08-06T08:37:35;3.47;;;2.58;;
8482;SDS011;4278;42.668;23.312;2023-08-06T08:40:02;3.70;;;2.60;;
8482;SDS011;4278;42.668;23.312;2023-08-06T08:42:30;3.22;;;2.63;;
8482;SDS011;4278;42.668;23.312;2023-08-06T08:44:58;4.00;;;2.65;;
8482;SDS011;4278;42.668;23.312;2023-08-06T08:47:25;4.00;;;2.88;;
8482;SDS011;4278;42.668;23.312;2023-08-06T08:49:52;6.70;;;3.10;;
8482;SDS011;4278;42.668;23.312;2023-08-06T08:52:21;3.03;;;2.72;;
8482;SDS011;4278;42.668;23.312;2023-08-06T08:54:48;3.45;;;2.85;;
8482;SDS011;4278;42.668;23.312;2023-08-06T08:57:18;2.85;;;2.65;;
8482;SDS011;4278;42.668;23.312;2023-08-06T08:59:44;3.78;;;3.03;;
8482;SDS011;4278;42.668;23.312;2023-08-06T09:02:13;4.80;;;2.95;;
8482;SDS011;4278;42.668;23.312;2023-08-06T09:04:41;3.38;;;2.95;;
8482;SDS011;4278;42.668;23.312;2023-08-06T09:07:11;3.58;;;3.00;;
8482;SDS011;4278;42.668;23.312;2023-08-06T09:09:43;4.65;;;3.00;;
8482;SDS011;4278;42.668;23.312;2023-08-06T09:12:14;3.58;;;2.65;;
8482;SDS011;4278;42.668;23.312;2023-08-06T09:14:41;3.42;;;3.13;;
8482;SDS011;4278;42.668;23.312;2023-08-06T09:17:08;3.60;;;2.97;;
8482;SDS011;4278;42.668;23.312;2023-08-06T09:19:37;4.00;;;3.05;;
8482;SDS011;4278;42.668;23.312;2023-08-06T09:22:03;3.35;;;2.90;;
8482;SDS011;4278;42.668;23.312;2023-08-06T09:24:38;3.08;;;2.75;;
8482;SDS011;4278;42.668;23.312;2023-08-06T09:27:04;3.85;;;2.80;;
8482;SDS011;4278;42.668;23.312;2023-08-06T09:29:31;4.78;;;3.22;;
8482;SDS011;4278;42.668;23.312;2023-08-06T09:31:59;4.03;;;3.00;;
8482;SDS011;4278;42.668;23.312;2023-08-06T09:34:25;4.40;;;2.90;;
8482;SDS011;4278;42.668;23.312;2023-08-06T09:36:54;2.58;;;2.28;;
8482;SDS011;4278;42.668;23.312;2023-08-06T09:39:21;3.38;;;2.40;;
8482;SDS011;4278;42.668;23.312;2023-08-06T09:41:52;4.22;;;2.53;;
8482;SDS011;4278;42.668;23.312;2023-08-06T09:44:22;3.45;;;2.17;;
8482;SDS011;4278;42.668;23.312;2023-08-06T09:46:50;2.40;;;2.20;;
8482;SDS011;4278;42.668;23.312;2023-08-06T09:49:19;3.90;;;2.40;;
8482;SDS011;4278;42.668;23.312;2023-08-06T09:51:48;4.20;;;2.60;;
8482;SDS011;4278;42.668;23.312;2023-08-06T09:54:20;2.22;;;1.98;;
8482;SDS011;4278;42.668;23.312;2023-08-06T09:56:47;3.35;;;2.50;;
8482;SDS011;4278;42.668;23.312;2023-08-06T09:59:14;4.47;;;2.30;;
8482;SDS011;4278;42.668;23.312;2023-08-06T10:01:42;2.25;;;2.05;;
8482;SDS011;4278;42.668;23.312;2023-08-06T10:04:10;3.10;;;2.13;;
8482;SDS011;4278;42.668;23.312;2023-08-06T10:06:37;3.58;;;2.40;;
8482;SDS011;4278;42.668;23.312;2023-08-06T10:09:04;3.95;;;2.28;;
8482;SDS011;4278;42.668;23.312;2023-08-06T10:11:32;2.55;;;1.95;;
8482;SDS011;4278;42.668;23.312;2023-08-06T10:14:00;2.75;;;2.47;;
8482;SDS011;4278;42.668;23.312;2023-08-06T10:16:30;5.85;;;2.45;;
8482;SDS011;4278;42.668;23.312;2023-08-06T10:18:58;2.65;;;2.20;;
8482;SDS011;4278;42.668;23.312;2023-08-06T10:21:27;3.65;;;2.20;;
8482;SDS011;4278;42.668;23.312;2023-08-06T10:23:55;3.03;;;2.30;;
8482;SDS011;4278;42.668;23.312;2023-08-06T10:26:24;2.40;;;2.20;;
8482;SDS011;4278;42.668;23.312;2023-08-06T10:28:53;3.70;;;2.00;;
8482;SDS011;4278;42.668;23.312;2023-08-06T10:31:20;2.72;;;2.20;;
8482;SDS011;4278;42.668;23.312;2023-08-06T10:34:07;2.17;;;1.98;;
8482;SDS011;4278;42.668;23.312;2023-08-06T10:36:33;3.40;;;1.85;;
8482;SDS011;4278;42.668;23.312;2023-08-06T10:39:00;2.55;;;2.28;;
8482;SDS011;4278;42.668;23.312;2023-08-06T10:41:27;4.07;;;2.20;;
8482;SDS011;4278;42.668;23.312;2023-08-06T10:44:06;3.72;;;2.90;;
8482;SDS011;4278;42.668;23.312;2023-08-06T10:46:34;3.72;;;2.40;;
8482;SDS011;4278;42.668;23.312;2023-08-06T10:49:01;3.40;;;2.47;;
8482;SDS011;4278;42.668;23.312;2023-08-06T10:51:28;4.15;;;2.80;;
8482;SDS011;4278;42.668;23.312;2023-08-06T10:53:55;3.33;;;2.47;;
8482;SDS011;4278;42.668;23.312;2023-08-06T10:56:23;4.43;;;2.45;;
8482;SDS011;4278;42.668;23.312;2023-08-06T10:58:53;3.40;;;2.35;;
8482;SDS011;4278;42.668;23.312;2023-08-06T11:01:22;3.13;;;2.70;;
8482;SDS011;4278;42.668;23.312;2023-08-06T11:03:49;3.47;;;2.35;;
8482;SDS011;4278;42.668;23.312;2023-08-06T11:06:18;4.28;;;2.70;;
8482;SDS011;4278;42.668;23.312;2023-08-06T11:08:47;3.20;;;2.67;;
8482;SDS011;4278;42.668;23.312;2023-08-06T11:11:15;3.03;;;2.38;;
8482;SDS011;4278;42.668;23.312;2023-08-06T11:13:42;2.92;;;2.58;;
8482;SDS011;4278;42.668;23.312;2023-08-06T11:16:12;5.07;;;3.28;;
8482;SDS011;4278;42.668;23.312;2023-08-06T11:18:41;4.82;;;3.00;;
8482;SDS011;4278;42.668;23.312;2023-08-06T11:21:08;3.72;;;2.75;;
8482;SDS011;4278;42.668;23.312;2023-08-06T11:23:37;3.90;;;2.95;;
8482;SDS011;4278;42.668;23.312;2023-08-06T11:26:04;5.30;;;3.35;;
8482;SDS011;4278;42.668;23.312;2023-08-06T11:28:31;6.22;;;3.38;;
8482;SDS011;4278;42.668;23.312;2023-08-06T11:30:58;7.10;;;3.72;;
8482;SDS011;4278;42.668;23.312;2023-08-06T11:33:27;3.78;;;3.40;;
8482;SDS011;4278;42.668;23.312;2023-08-06T11:35:57;4.63;;;3.47;;
8482;SDS011;4278;42.668;23.312;2023-08-06T11:38:25;3.85;;;3.28;;
8482;SDS011;4278;42.668;23.312;2023-08-06T11:40:52;6.78;;;4.13;;
8482;SDS011;4278;42.668;23.312;2023-08-06T11:43:19;4.13;;;3.67;;
8482;SDS011;4278;42.668;23.312;2023-08-06T11:45:47;4.25;;;3.60;;
8482;SDS011;4278;42.668;23.312;2023-08-06T11:48:15;6.78;;;3.50;;
8482;SDS011;4278;42.668;23.312;2023-08-06T11:50:43;4.93;;;3.35;;
8482;SDS011;4278;42.668;23.312;2023-08-06T11:53:13;4.72;;;3.40;;
8482;SDS011;4278;42.668;23.312;2023-08-06T11:55:41;4.88;;;3.17;;
8482;SDS011;4278;42.668;23.312;2023-08-06T11:58:09;4.53;;;3.53;;
8482;SDS011;4278;42.668;23.312;2023-08-06T12:00:36;5.22;;;3.13;;
8482;SDS011;4278;42.668;23.312;2023-08-06T12:03:04;5.13;;;3.17;;
8482;SDS011;4278;42.668;23.312;2023-08-06T12:05:31;3.60;;;3.15;;
8482;SDS011;4278;42.668;23.312;2023-08-06T12:07:59;5.18;;;3.42;;
8482;SDS011;4278;42.668;23.312;2023-08-06T12:10:29;4.25;;;3.50;;
8482;SDS011;4278;42.668;23.312;2023-08-06T12:12:56;4.60;;;3.30;;
8482;SDS011;4278;42.668;23.312;2023-08-06T12:15:23;3.72;;;3.35;;
8482;SDS011;4278;42.668;23.312;2023-08-06T12:17:50;3.83;;;3.42;;
8482;SDS011;4278;42.668;23.312;2023-08-06T12:20:17;3.88;;;3.58;;
8482;SDS011;4278;42.668;23.312;2023-08-06T12:22:43;5.32;;;4.00;;
8482;SDS011;4278;42.668;23.312;2023-08-06T12:25:11;5.07;;;4.38;;
8482;SDS011;4278;42.668;23.312;2023-08-06T12:27:40;4.53;;;3.80;;
8482;SDS011;4278;42.668;23.312;2023-08-06T12:30:08;7.72;;;4.32;;
8482;SDS011;4278;42.668;23.312;2023-08-06T12:32:36;4.93;;;4.32;;
8482;SDS011;4278;42.668;23.312;2023-08-06T12:35:03;5.93;;;4.63;;
8482;SDS011;4278;42.668;23.312;2023-08-06T12:37:32;6.65;;;4.75;;
8482;SDS011;4278;42.668;23.312;2023-08-06T12:39:59;5.25;;;4.55;;
8482;SDS011;4278;42.668;23.312;2023-08-06T12:42:26;5.20;;;4.32;;
8482;SDS011;4278;42.668;23.312;2023-08-06T12:44:54;4.65;;;4.25;;
8482;SDS011;4278;42.668;23.312;2023-08-06T12:47:20;5.20;;;4.70;;
8482;SDS011;4278;42.668;23.312;2023-08-06T12:49:47;5.60;;;4.65;;
8482;SDS011;4278;42.668;23.312;2023-08-06T12:52:14;4.93;;;4.30;;
8482;SDS011;4278;42.668;23.312;2023-08-06T12:54:41;5.18;;;4.68;;
8482;SDS011;4278;42.668;23.312;2023-08-06T12:57:10;5.10;;;4.60;;
8482;SDS011;4278;42.668;23.312;2023-08-06T13:02:24;6.75;;;4.00;;
8482;SDS011;4278;42.668;23.312;2023-08-06T13:04:54;5.40;;;4.90;;
8482;SDS011;4278;42.668;23.312;2023-08-06T13:07:21;5.07;;;4.55;;
8482;SDS011;4278;42.668;23.312;2023-08-06T13:09:48;8.35;;;4.40;;
8482;SDS011;4278;42.668;23.312;2023-08-06T13:12:14;6.90;;;4.70;;
8482;SDS011;4278;42.668;23.312;2023-08-06T13:14:44;8.95;;;4.40;;
8482;SDS011;4278;42.668;23.312;2023-08-06T13:17:12;4.43;;;4.03;;
8482;SDS011;4278;42.668;23.312;2023-08-06T13:19:38;6.63;;;4.70;;
8482;SDS011;4278;42.668;23.312;2023-08-06T13:22:05;5.03;;;4.28;;
8482;SDS011;4278;42.668;23.312;2023-08-06T13:24:33;5.72;;;4.50;;
8482;SDS011;4278;42.668;23.312;2023-08-06T13:27:00;5.05;;;4.55;;
8482;SDS011;4278;42.668;23.312;2023-08-06T13:29:28;5.00;;;4.50;;
8482;SDS011;4278;42.668;23.312;2023-08-06T13:31:55;5.70;;;4.30;;
8482;SDS011;4278;42.668;23.312;2023-08-06T13:34:23;4.80;;;4.05;;
8482;SDS011;4278;42.668;23.312;2023-08-06T13:36:49;5.45;;;4.30;;
8482;SDS011;4278;42.668;23.312;2023-08-06T13:39:16;5.97;;;4.70;;
8482;SDS011;4278;42.668;23.312;2023-08-06T13:41:43;6.47;;;5.30;;
8482;SDS011;4278;42.668;23.312;2023-08-06T13:44:10;4.75;;;4.32;;
8482;SDS011;4278;42.668;23.312;2023-08-06T13:46:40;6.28;;;4.18;;
8482;SDS011;4278;42.668;23.312;2023-08-06T13:49:07;6.90;;;4.60;;
8482;SDS011;4278;42.668;23.312;2023-08-06T13:51:35;4.70;;;4.30;;
8482;SDS011;4278;42.668;23.312;2023-08-06T13:54:03;5.53;;;4.15;;
8482;SDS011;4278;42.668;23.312;2023-08-06T13:56:30;8.10;;;4.70;;
8482;SDS011;4278;42.668;23.312;2023-08-06T13:58:57;5.75;;;3.95;;
8482;SDS011;4278;42.668;23.312;2023-08-06T14:01:23;5.93;;;4.20;;
8482;SDS011;4278;42.668;23.312;2023-08-06T14:03:50;5.00;;;4.43;;
8482;SDS011;4278;42.668;23.312;2023-08-06T14:06:18;4.47;;;4.07;;
8482;SDS011;4278;42.668;23.312;2023-08-06T14:08:46;6.97;;;3.88;;
8482;SDS011;4278;42.668;23.312;2023-08-06T14:11:13;6.55;;;4.15;;
8482;SDS011;4278;42.668;23.312;2023-08-06T14:13:40;6.13;;;4.43;;
8482;SDS011;4278;42.668;23.312;2023-08-06T14:16:07;6.45;;;4.22;;
8482;SDS011;4278;42.668;23.312;2023-08-06T14:18:34;3.85;;;3.45;;
8482;SDS011;4278;42.668;23.312;2023-08-06T14:21:03;4.05;;;3.65;;
8482;SDS011;4278;42.668;23.312;2023-08-06T14:23:29;5.45;;;3.58;;
8482;SDS011;4278;42.668;23.312;2023-08-06T14:25:57;5.85;;;3.70;;
8482;SDS011;4278;42.668;23.312;2023-08-06T14:28:24;6.00;;;3.78;;
8482;SDS011;4278;42.668;23.312;2023-08-06T14:30:51;6.70;;;4.28;;
8482;SDS011;4278;42.668;23.312;2023-08-06T14:33:18;8.90;;;4.40;;
8482;SDS011;4278;42.668;23.312;2023-08-06T14:35:44;6.97;;;4.30;;
8482;SDS011;4278;42.668;23.312;2023-08-06T14:38:11;4.38;;;3.40;;
8482;SDS011;4278;42.668;23.312;2023-08-06T14:40:38;4.32;;;3.50;;
8482;SDS011;4278;42.668;23.312;2023-08-06T14:43:07;3.70;;;3.40;;
8482;SDS011;4278;42.668;23.312;2023-08-06T14:45:33;4.53;;;3.30;;
8482;SDS011;4278;42.668;23.312;2023-08-06T14:48:04;4.88;;;3.25;;
8482;SDS011;4278;42.668;23.312;2023-08-06T14:50:30;3.63;;;3.00;;
8482;SDS011;4278;42.668;23.312;2023-08-06T14:52:57;4.95;;;3.17;;
8482;SDS011;4278;42.668;23.312;2023-08-06T14:55:26;5.75;;;2.80;;
8482;SDS011;4278;42.668;23.312;2023-08-06T14:57:53;4.80;;;3.03;;
8482;SDS011;4278;42.668;23.312;2023-08-06T15:00:21;4.82;;;3.42;;
8482;SDS011;4278;42.668;23.312;2023-08-06T15:02:48;8.85;;;3.58;;
8482;SDS011;4278;42.668;23.312;2023-08-06T15:05:15;4.22;;;3.35;;
8482;SDS011;4278;42.668;23.312;2023-08-06T15:07:42;5.05;;;3.10;;